createdAt,value
2018-04-18T00:00:35.222Z,992.9
2018-04-18T00:01:36.829Z,992.8
2018-04-18T00:02:38.261Z,993
2018-04-18T00:03:39.795Z,993
2018-04-18T00:04:41.144Z,992.9
2018-04-18T00:05:42.465Z,993
2018-04-18T00:06:43.794Z,992.9
2018-04-18T00:07:45.139Z,993
2018-04-18T00:08:46.525Z,993
2018-04-18T00:09:47.872Z,993
2018-04-18T00:10:49.292Z,993
2018-04-18T00:11:50.618Z,993
2018-04-18T00:12:51.924Z,993
2018-04-18T00:13:53.776Z,993
2018-04-18T00:14:55.107Z,993.1
2018-04-18T00:15:56.479Z,992.7
2018-04-18T00:16:57.853Z,993
2018-04-18T00:17:59.185Z,993
2018-04-18T00:19:00.582Z,993.1
2018-04-18T00:20:01.928Z,993.1
2018-04-18T00:21:03.280Z,993.1
2018-04-18T00:22:04.691Z,993.1
2018-04-18T00:23:06.011Z,993.1
2018-04-18T00:24:07.371Z,993.1
2018-04-18T00:25:08.730Z,993.2
2018-04-18T00:26:10.042Z,993.1
2018-04-18T00:27:11.384Z,993.1
2018-04-18T00:28:12.715Z,993.1
2018-04-18T00:29:14.084Z,993.1
2018-04-18T00:30:15.419Z,993.1
2018-04-18T00:31:16.731Z,993.1
2018-04-18T00:32:18.128Z,993.1
2018-04-18T00:33:19.467Z,993.1
2018-04-18T00:34:20.844Z,993.1
2018-04-18T00:35:22.223Z,993.1
2018-04-18T00:36:23.531Z,993.1
2018-04-18T00:37:24.871Z,993.1
2018-04-18T00:38:26.187Z,993.1
2018-04-18T00:39:27.533Z,993.1
2018-04-18T00:40:28.908Z,993.1
2018-04-18T00:41:30.217Z,993.1
2018-04-18T00:42:31.532Z,993.1
2018-04-18T00:43:32.871Z,993.1
2018-04-18T00:44:34.698Z,993.1
2018-04-18T00:45:36.055Z,993.1
2018-04-18T00:46:37.361Z,993.1
2018-04-18T00:47:38.714Z,993.1
2018-04-18T00:48:40.044Z,993.1
2018-04-18T00:49:41.455Z,993.1
2018-04-18T00:50:42.802Z,993
2018-04-18T00:51:44.407Z,993.1
2018-04-18T00:52:46.119Z,993.1
2018-04-18T00:53:47.666Z,993.1
2018-04-18T00:54:49.122Z,993.1
2018-04-18T00:55:50.676Z,993.1
2018-04-18T00:56:52.030Z,993.1
2018-04-18T00:57:53.580Z,993.1
2018-04-18T00:58:54.935Z,993.1
2018-04-18T00:59:56.651Z,993.1
2018-04-18T01:00:57.984Z,993.1
2018-04-18T01:01:59.460Z,992.9
2018-04-18T01:03:00.816Z,993.1
2018-04-18T01:04:02.169Z,993.1
2018-04-18T01:05:03.571Z,993.1
2018-04-18T01:06:04.890Z,993.1
2018-04-18T01:07:06.218Z,993.1
2018-04-18T01:08:08.184Z,993.2
2018-04-18T01:09:09.577Z,993.2
2018-04-18T01:10:10.963Z,993.2
2018-04-18T01:11:12.297Z,993.3
2018-04-18T01:12:13.618Z,993.2
2018-04-18T01:13:14.953Z,993.2
2018-04-18T01:14:16.296Z,993.2
2018-04-18T01:15:17.935Z,993.2
2018-04-18T01:16:19.283Z,993.2
2018-04-18T01:17:20.626Z,993.2
2018-04-18T01:18:21.999Z,993.2
2018-04-18T01:19:23.331Z,993.2
2018-04-18T01:20:24.718Z,993.2
2018-04-18T01:21:26.038Z,993.2
2018-04-18T01:22:27.344Z,993.2
2018-04-18T01:23:31.320Z,993.2
2018-04-18T01:24:32.674Z,993.2
2018-04-18T01:25:34.060Z,993.3
2018-04-18T01:26:35.828Z,993
2018-04-18T01:27:37.226Z,993.2
2018-04-18T01:28:38.785Z,993.2
2018-04-18T01:29:40.120Z,993.2
2018-04-18T01:30:41.581Z,993.3
2018-04-18T01:31:42.982Z,993.2
2018-04-18T01:32:44.429Z,993.2
2018-04-18T01:33:45.821Z,993.2
2018-04-18T01:34:47.213Z,993.2
2018-04-18T01:35:48.660Z,993.2
2018-04-18T01:36:50.031Z,993.2
2018-04-18T01:37:51.369Z,993.1
2018-04-18T01:38:52.716Z,993.1
2018-04-18T01:39:54.090Z,993.1
2018-04-18T01:40:55.656Z,993.1
2018-04-18T01:41:57.027Z,993.1
2018-04-18T01:42:58.368Z,993.1
2018-04-18T01:43:59.800Z,993.1
2018-04-18T01:45:01.184Z,993.1
2018-04-18T01:46:02.623Z,993.1
2018-04-18T01:47:04.040Z,993.1
2018-04-18T01:48:05.552Z,993.1
2018-04-18T01:49:06.929Z,993.1
2018-04-18T01:50:08.289Z,993.1
2018-04-18T01:51:09.880Z,993.1
2018-04-18T01:52:11.323Z,993.1
2018-04-18T01:53:12.693Z,993.1
2018-04-18T01:54:14.430Z,993.2
2018-04-18T01:55:15.829Z,993.1
2018-04-18T01:56:18.335Z,993.2
2018-04-18T01:57:19.764Z,993.2
2018-04-18T01:58:23.285Z,993.2
2018-04-18T01:59:24.773Z,993.2
2018-04-18T02:00:26.314Z,993.3
2018-04-18T02:01:27.770Z,993.2
2018-04-18T02:02:29.744Z,993.3
2018-04-18T02:03:31.135Z,993.2
2018-04-18T02:04:32.929Z,993.2
2018-04-18T02:05:34.352Z,993.2
2018-04-18T02:06:36.524Z,993.2
2018-04-18T02:07:37.900Z,993.2
2018-04-18T02:08:39.607Z,993.3
2018-04-18T02:09:41.037Z,993.3
2018-04-18T02:10:42.412Z,993.3
2018-04-18T02:11:43.828Z,993.3
2018-04-18T02:12:45.252Z,993.3
2018-04-18T02:13:46.631Z,993.2
2018-04-18T02:14:48.049Z,993.3
2018-04-18T02:15:49.952Z,993.3
2018-04-18T02:16:51.620Z,993.3
2018-04-18T02:17:53.010Z,993.3
2018-04-18T02:18:54.501Z,993.3
2018-04-18T02:19:55.920Z,993.3
2018-04-18T02:20:57.445Z,993.3
2018-04-18T02:21:58.897Z,993.2
2018-04-18T02:23:00.247Z,993.2
2018-04-18T02:24:01.617Z,993.3
2018-04-18T02:25:06.043Z,993.3
2018-04-18T02:26:07.417Z,993.3
2018-04-18T02:27:08.868Z,993.3
2018-04-18T02:28:10.453Z,993.3
2018-04-18T02:29:12.143Z,993.3
2018-04-18T02:30:13.560Z,993.3
2018-04-18T02:31:14.976Z,993.3
2018-04-18T02:32:16.426Z,993.3
2018-04-18T02:33:17.787Z,993.3
2018-04-18T02:34:19.201Z,993.3
2018-04-18T02:35:20.551Z,993.3
2018-04-18T02:36:21.924Z,993.4
2018-04-18T02:37:23.500Z,993.3
2018-04-18T02:38:24.856Z,993.4
2018-04-18T02:39:26.228Z,993.4
2018-04-18T02:40:27.620Z,993.4
2018-04-18T02:41:28.982Z,993.4
2018-04-18T02:42:30.408Z,993.1
2018-04-18T02:43:31.779Z,993.4
2018-04-18T02:44:33.133Z,993.5
2018-04-18T02:45:34.496Z,993.4
2018-04-18T02:46:35.908Z,993.5
2018-04-18T02:47:37.596Z,993.5
2018-04-18T02:48:38.970Z,993.5
2018-04-18T02:49:40.349Z,993.5
2018-04-18T02:50:41.737Z,993.5
2018-04-18T02:51:43.099Z,993.5
2018-04-18T02:52:44.794Z,993.5
2018-04-18T02:53:46.152Z,993.6
2018-04-18T02:54:47.576Z,993.5
2018-04-18T02:55:48.966Z,993.5
2018-04-18T02:56:50.358Z,993.5
2018-04-18T02:57:51.797Z,993.3
2018-04-18T02:58:53.149Z,993.5
2018-04-18T02:59:54.523Z,993.5
2018-04-18T03:00:55.868Z,993.6
2018-04-18T03:01:57.293Z,993.6
2018-04-18T03:02:58.997Z,993.5
2018-04-18T03:04:00.357Z,993.6
2018-04-18T03:05:04.550Z,993.6
2018-04-18T03:06:05.967Z,993.6
2018-04-18T03:07:08.249Z,993.4
2018-04-18T03:08:09.673Z,993.7
2018-04-18T03:09:11.746Z,993.6
2018-04-18T03:10:13.170Z,993.6
2018-04-18T03:11:15.164Z,993.7
2018-04-18T03:12:18.597Z,993.7
2018-04-18T03:13:20.353Z,993.7
2018-04-18T03:14:21.732Z,993.7
2018-04-18T03:15:23.576Z,993.7
2018-04-18T03:16:26.549Z,993.7
2018-04-18T03:17:28.369Z,993.5
2018-04-18T03:18:30.023Z,993.7
2018-04-18T03:19:31.801Z,993.7
2018-04-18T03:20:33.231Z,993.7
2018-04-18T03:21:34.775Z,993.7
2018-04-18T03:22:36.103Z,993.7
2018-04-18T03:23:37.635Z,993.7
2018-04-18T03:24:39.067Z,993.7
2018-04-18T03:25:40.433Z,993.7
2018-04-18T03:26:41.831Z,993.8
2018-04-18T03:27:43.178Z,993.8
2018-04-18T03:28:44.560Z,993.8
2018-04-18T03:29:45.918Z,993.8
2018-04-18T03:30:47.387Z,993.8
2018-04-18T03:31:48.779Z,993.8
2018-04-18T03:32:50.119Z,993.8
2018-04-18T03:33:51.535Z,993.8
2018-04-18T03:34:52.895Z,993.8
2018-04-18T03:35:54.305Z,993.9
2018-04-18T03:36:58.100Z,993.9
2018-04-18T03:37:59.480Z,993.9
2018-04-18T03:39:01.137Z,993.9
2018-04-18T03:40:02.520Z,993.9
2018-04-18T03:41:03.975Z,993.9
2018-04-18T03:42:05.488Z,993.9
2018-04-18T03:43:06.845Z,993.9
2018-04-18T03:44:08.348Z,993.9
2018-04-18T03:45:09.783Z,993.9
2018-04-18T03:46:11.175Z,993.9
2018-04-18T03:47:14.135Z,993.9
2018-04-18T03:48:15.518Z,993.9
2018-04-18T03:49:17.232Z,993.9
2018-04-18T03:50:18.630Z,993.9
2018-04-18T03:51:20.091Z,993.9
2018-04-18T03:52:21.445Z,993.9
2018-04-18T03:53:22.812Z,993.9
2018-04-18T03:54:24.194Z,994
2018-04-18T03:55:25.515Z,994
2018-04-18T03:56:26.830Z,994
2018-04-18T03:57:28.175Z,993.9
2018-04-18T03:58:29.499Z,993.9
2018-04-18T03:59:30.871Z,994
2018-04-18T04:00:32.207Z,993.9
2018-04-18T04:01:33.519Z,994
2018-04-18T04:02:34.903Z,994
2018-04-18T04:03:36.162Z,994
2018-04-18T04:04:37.574Z,994
2018-04-18T04:05:38.913Z,994
2018-04-18T04:06:40.237Z,993.9
2018-04-18T04:07:41.548Z,994
2018-04-18T04:08:42.871Z,994
2018-04-18T04:09:44.419Z,994
2018-04-18T04:10:45.811Z,994
2018-04-18T04:11:47.154Z,994
2018-04-18T04:12:48.475Z,994
2018-04-18T04:13:49.960Z,994
2018-04-18T04:14:51.346Z,994
2018-04-18T04:15:52.812Z,993.9
2018-04-18T04:16:54.169Z,994.1
2018-04-18T04:17:55.685Z,993.8
2018-04-18T04:18:57.037Z,994.1
2018-04-18T04:19:58.930Z,994.1
2018-04-18T04:21:00.289Z,994.1
2018-04-18T04:22:01.702Z,994.1
2018-04-18T04:23:03.058Z,994.1
2018-04-18T04:24:04.585Z,993.9
2018-04-18T04:25:06.026Z,994.1
2018-04-18T04:26:07.358Z,994.1
2018-04-18T04:27:08.717Z,994.1
2018-04-18T04:28:10.259Z,994.1
2018-04-18T04:29:11.591Z,994.1
2018-04-18T04:30:12.960Z,994.1
2018-04-18T04:31:14.300Z,994.2
2018-04-18T04:32:15.621Z,994.1
2018-04-18T04:33:16.935Z,994.2
2018-04-18T04:34:18.287Z,994.1
2018-04-18T04:35:19.660Z,994.2
2018-04-18T04:36:21.031Z,994.2
2018-04-18T04:37:22.369Z,994.2
2018-04-18T04:38:23.748Z,994
2018-04-18T04:39:25.080Z,994.2
2018-04-18T04:40:26.527Z,994.2
2018-04-18T04:41:27.858Z,994.2
2018-04-18T04:42:29.195Z,994.2
2018-04-18T04:43:30.563Z,994.2
2018-04-18T04:44:31.985Z,994.1
2018-04-18T04:45:33.324Z,994.2
2018-04-18T04:46:34.628Z,994.2
2018-04-18T04:47:35.996Z,994.3
2018-04-18T04:48:37.314Z,994.2
2018-04-18T04:49:38.659Z,993.9
2018-04-18T04:50:40.412Z,994.3
2018-04-18T04:51:45.858Z,994.3
2018-04-18T04:52:47.680Z,994.4
2018-04-18T04:53:49.058Z,994.4
2018-04-18T04:54:50.412Z,994.4
2018-04-18T04:55:51.783Z,994.4
2018-04-18T04:56:53.140Z,994.4
2018-04-18T04:57:54.492Z,994.5
2018-04-18T04:58:55.808Z,994.5
2018-04-18T04:59:57.274Z,994.4
2018-04-18T05:00:58.777Z,994.5
2018-04-18T05:02:00.243Z,994.4
2018-04-18T05:03:01.560Z,994.4
2018-04-18T05:04:03.004Z,994.5
2018-04-18T05:05:04.755Z,994.5
2018-04-18T05:06:06.943Z,994.5
2018-04-18T05:07:08.327Z,994.5
2018-04-18T05:08:09.735Z,994.5
2018-04-18T05:09:11.079Z,994.5
2018-04-18T05:10:12.456Z,994.5
2018-04-18T05:11:13.843Z,994.5
2018-04-18T05:12:15.168Z,994.5
2018-04-18T05:13:16.529Z,994.6
2018-04-18T05:14:17.885Z,994.6
2018-04-18T05:15:19.257Z,994.6
2018-04-18T05:16:22.028Z,994.4
2018-04-18T05:17:23.659Z,994.4
2018-04-18T05:18:25.063Z,994.4
2018-04-18T05:19:26.396Z,994.6
2018-04-18T05:20:27.889Z,994.6
2018-04-18T05:21:29.611Z,994.6
2018-04-18T05:22:31.188Z,994.6
2018-04-18T05:23:32.566Z,994.6
2018-04-18T05:24:34.169Z,994.6
2018-04-18T05:25:35.568Z,994.6
2018-04-18T05:26:37.141Z,994.6
2018-04-18T05:27:38.521Z,994.7
2018-04-18T05:28:40.053Z,994.7
2018-04-18T05:29:41.383Z,994.7
2018-04-18T05:30:48.805Z,994.7
2018-04-18T05:31:50.323Z,994.7
2018-04-18T05:32:54.518Z,994.5
2018-04-18T05:33:58.384Z,994.8
2018-04-18T05:35:00.360Z,994.8
2018-04-18T05:36:01.815Z,994.9
2018-04-18T05:37:03.496Z,994.8
2018-04-18T05:38:04.871Z,994.9
2018-04-18T05:39:06.526Z,994.9
2018-04-18T05:40:07.870Z,994.9
2018-04-18T05:41:12.009Z,994.9
2018-04-18T05:42:13.563Z,995
2018-04-18T05:43:15.575Z,994.9
2018-04-18T05:44:17.217Z,994.6
2018-04-18T05:45:18.617Z,995
2018-04-18T05:46:23.391Z,995
2018-04-18T05:47:30.871Z,995
2018-04-18T05:48:35.204Z,995.1
2018-04-18T05:49:36.955Z,994.9
2018-04-18T05:50:40.527Z,995
2018-04-18T05:51:42.055Z,995.1
2018-04-18T05:52:43.502Z,995
2018-04-18T05:53:45.008Z,995.1
2018-04-18T05:54:46.432Z,995.1
2018-04-18T05:55:48.004Z,994.9
2018-04-18T05:56:51.354Z,994.9
2018-04-18T05:57:52.926Z,995.1
2018-04-18T05:58:54.318Z,995.1
2018-04-18T05:59:57.372Z,995.1
2018-04-18T06:00:58.753Z,995.1
2018-04-18T06:02:00.238Z,995.1
2018-04-18T06:03:01.714Z,995.1
2018-04-18T06:04:03.033Z,995.1
2018-04-18T06:05:06.052Z,995.1
2018-04-18T06:06:07.434Z,995.1
2018-04-18T06:07:08.829Z,995.1
2018-04-18T06:08:10.226Z,995.2
2018-04-18T06:09:11.585Z,995.2
2018-04-18T06:10:12.976Z,995.2
2018-04-18T06:11:14.345Z,995.2
2018-04-18T06:12:15.742Z,995.4
2018-04-18T06:13:17.417Z,995.3
2018-04-18T06:14:18.792Z,995.4
2018-04-18T06:15:20.295Z,995.1
2018-04-18T06:16:21.732Z,995.3
2018-04-18T06:17:25.998Z,995.6
2018-04-18T06:18:27.446Z,995.7
2018-04-18T06:19:28.791Z,995.7
2018-04-18T06:20:30.193Z,995.9
2018-04-18T06:21:31.597Z,995.8
2018-04-18T06:22:33.029Z,995.9
2018-04-18T06:23:34.408Z,996
2018-04-18T06:24:35.734Z,996
2018-04-18T06:25:37.086Z,996.1
2018-04-18T06:26:38.460Z,996.1
2018-04-18T06:27:39.857Z,996.1
2018-04-18T06:28:41.319Z,996.1
2018-04-18T06:29:42.648Z,996.2
2018-04-18T06:30:44.006Z,996.2
2018-04-18T06:31:45.346Z,996.2
2018-04-18T06:32:46.691Z,996.3
2018-04-18T06:33:48.046Z,996.3
2018-04-18T06:34:49.417Z,996.3
2018-04-18T06:35:51.856Z,996.4
2018-04-18T06:36:53.312Z,996.5
2018-04-18T06:37:54.768Z,996.6
2018-04-18T06:38:56.189Z,996.7
2018-04-18T06:39:57.749Z,996.7
2018-04-18T06:40:59.172Z,996.8
2018-04-18T06:42:00.637Z,996.8
2018-04-18T06:43:02.023Z,996.9
2018-04-18T06:44:03.490Z,996.8
2018-04-18T06:45:04.851Z,996.7
2018-04-18T06:46:06.220Z,997
2018-04-18T06:47:07.634Z,997
2018-04-18T06:48:08.988Z,997.1
2018-04-18T06:49:10.452Z,997.1
2018-04-18T06:50:11.990Z,997.2
2018-04-18T06:51:13.461Z,997.3
2018-04-18T06:52:14.786Z,997.3
2018-04-18T06:53:16.186Z,997.4
2018-04-18T06:54:17.629Z,997.4
2018-04-18T06:55:19.004Z,997.5
2018-04-18T06:56:20.407Z,997.5
2018-04-18T06:57:21.795Z,997.5
2018-04-18T06:58:23.344Z,997.6
2018-04-18T06:59:24.818Z,997.6
2018-04-18T07:00:26.545Z,997.6
2018-04-18T07:01:27.931Z,997.7
2018-04-18T07:02:29.722Z,997.8
2018-04-18T07:03:31.773Z,997.7
2018-04-18T07:04:38.780Z,997.7
2018-04-18T07:05:40.214Z,997.8
2018-04-18T07:06:44.790Z,997.8
2018-04-18T07:07:46.152Z,997.9
2018-04-18T07:08:48.026Z,997.9
2018-04-18T07:09:49.514Z,997.9
2018-04-18T07:10:51.405Z,997.8
2018-04-18T07:11:52.888Z,998
2018-04-18T07:12:56.539Z,998
2018-04-18T07:13:58.151Z,998.1
2018-04-18T07:14:59.973Z,998
2018-04-18T07:16:01.417Z,998.1
2018-04-18T07:17:08.229Z,998.1
2018-04-18T07:18:09.627Z,998.1
2018-04-18T07:19:12.073Z,998.1
2018-04-18T07:20:13.616Z,998.1
2018-04-18T07:21:16.521Z,998.2
2018-04-18T07:22:17.951Z,998.1
2018-04-18T07:23:23.826Z,998.3
2018-04-18T07:24:25.194Z,998.3
2018-04-18T07:25:27.555Z,998.3
2018-04-18T07:26:29.006Z,998.3
2018-04-18T07:27:32.518Z,998.2
2018-04-18T07:28:33.979Z,998.3
2018-04-18T07:29:35.652Z,998.3
2018-04-18T07:30:37.079Z,998.2
2018-04-18T07:31:39.005Z,998.4
2018-04-18T07:32:40.598Z,998.4
2018-04-18T07:33:43.453Z,998.3
2018-04-18T07:34:44.823Z,998.4
2018-04-18T07:35:47.710Z,998.5
2018-04-18T07:36:49.191Z,998.4
2018-04-18T07:37:54.340Z,998.5
2018-04-18T07:38:57.587Z,998.6
2018-04-18T07:39:59.565Z,998.6
2018-04-18T07:41:01.212Z,998.6
2018-04-18T07:42:04.245Z,998.3
2018-04-18T07:43:05.733Z,998.7
2018-04-18T07:44:10.685Z,998.8
2018-04-18T07:45:12.544Z,998.8
2018-04-18T07:46:19.932Z,998.8
2018-04-18T07:47:23.311Z,998.4
2018-04-18T07:48:24.817Z,998.6
2018-04-18T07:49:26.196Z,998.7
2018-04-18T07:50:29.650Z,998.7
2018-04-18T07:51:31.249Z,998.7
2018-04-18T07:52:34.458Z,998.6
2018-04-18T07:53:35.894Z,998.8
2018-04-18T07:54:42.539Z,998.5
2018-04-18T07:55:44.048Z,998.8
2018-04-18T07:56:45.529Z,998.8
2018-04-18T07:57:46.951Z,998.8
2018-04-18T07:58:49.560Z,998.9
2018-04-18T07:59:55.101Z,999
2018-04-18T08:00:56.748Z,998.9
2018-04-18T08:01:58.271Z,998.9
2018-04-18T08:03:00.021Z,998.9
2018-04-18T08:04:01.620Z,998.9
2018-04-18T08:05:07.146Z,999.1
2018-04-18T08:06:08.517Z,999.1
2018-04-18T08:07:09.976Z,999.1
2018-04-18T08:08:11.440Z,999
2018-04-18T08:09:13.430Z,998.6
2018-04-18T08:10:14.802Z,999
2018-04-18T08:11:24.760Z,998.8
2018-04-18T08:12:26.237Z,999
2018-04-18T08:13:27.635Z,999
2018-04-18T08:14:29.002Z,999
2018-04-18T08:15:30.460Z,998.9
2018-04-18T08:16:31.748Z,998.8
2018-04-18T08:17:34.032Z,998.9
2018-04-18T08:18:35.429Z,998.9
2018-04-18T08:19:36.943Z,999
2018-04-18T08:20:41.547Z,999
2018-04-18T08:21:44.090Z,998.9
2018-04-18T08:22:45.529Z,998.8
2018-04-18T08:23:49.095Z,998.9
2018-04-18T08:24:50.508Z,999
2018-04-18T08:25:54.827Z,998.9
2018-04-18T08:26:56.225Z,999
2018-04-18T08:27:59.837Z,998.9
2018-04-18T08:29:01.757Z,998.9
2018-04-18T08:30:06.331Z,998.8
2018-04-18T08:31:07.752Z,998.9
2018-04-18T08:32:11.962Z,998.7
2018-04-18T08:33:13.390Z,998.8
2018-04-18T08:34:15.843Z,998.7
2018-04-18T08:35:17.287Z,998.7
2018-04-18T08:36:20.559Z,998.6
2018-04-18T08:37:21.935Z,998.5
2018-04-18T08:38:28.969Z,998.4
2018-04-18T08:39:31.597Z,998.5
2018-04-18T08:40:37.601Z,998.4
2018-04-18T08:41:39.044Z,998.2
2018-04-18T08:42:40.545Z,998.4
2018-04-18T08:43:41.936Z,998.3
2018-04-18T08:44:43.439Z,998.3
2018-04-18T08:45:44.784Z,998.4
2018-04-18T08:46:46.150Z,998.2
2018-04-18T08:47:47.538Z,998.2
2018-04-18T08:48:50.234Z,998.1
2018-04-18T08:49:54.345Z,998.2
2018-04-18T08:50:55.817Z,998.2
2018-04-18T08:51:59.911Z,998.1
2018-04-18T08:53:07.352Z,998.1
2018-04-18T08:54:08.818Z,998.1
2018-04-18T08:55:10.186Z,998.2
2018-04-18T08:56:11.679Z,998.2
2018-04-18T08:57:15.823Z,998
2018-04-18T08:58:17.210Z,998.2
2018-04-18T08:59:19.264Z,998.1
2018-04-18T09:00:20.705Z,998.1
2018-04-18T09:01:22.155Z,998
2018-04-18T09:02:26.182Z,998.1
2018-04-18T09:03:27.674Z,998.1
2018-04-18T09:04:29.162Z,998.1
2018-04-18T09:05:30.539Z,998
2018-04-18T09:06:32.245Z,997.8
2018-04-18T09:07:34.751Z,997.9
2018-04-18T09:08:36.146Z,997.9
2018-04-18T09:09:37.912Z,998
2018-04-18T09:10:40.015Z,998
2018-04-18T09:11:44.341Z,998
2018-04-18T09:13:49.106Z,998
2018-04-18T09:14:50.615Z,998.1
2018-04-18T09:15:55.217Z,998
2018-04-18T09:16:56.644Z,997.8
2018-04-18T09:18:00.360Z,997.9
2018-04-18T09:19:01.827Z,997.9
2018-04-18T09:20:04.895Z,997.9
2018-04-18T09:21:06.258Z,997.9
2018-04-18T09:22:10.592Z,997.9
2018-04-18T09:23:12.041Z,997.9
2018-04-18T09:24:13.723Z,998
2018-04-18T09:25:21.255Z,998
2018-04-18T09:26:22.875Z,997.8
2018-04-18T09:27:24.292Z,998
2018-04-18T09:28:25.669Z,998.1
2018-04-18T09:29:27.023Z,997.9
2018-04-18T09:30:29.748Z,998
2018-04-18T09:31:31.332Z,998
2018-04-18T09:32:33.155Z,998.1
2018-04-18T09:33:34.569Z,998
2018-04-18T09:34:36.188Z,998
2018-04-18T09:35:37.657Z,997.9
2018-04-18T09:36:39.509Z,998.1
2018-04-18T09:37:40.917Z,998
2018-04-18T09:38:43.872Z,998
2018-04-18T09:39:48.599Z,998
2018-04-18T09:40:55.635Z,998
2018-04-18T09:41:57.054Z,997.9
2018-04-18T09:42:58.396Z,997.9
2018-04-18T09:43:59.737Z,998
2018-04-18T09:45:01.108Z,998
2018-04-18T09:46:02.611Z,997.9
2018-04-18T09:47:04.426Z,997.9
2018-04-18T09:48:05.789Z,997.9
2018-04-18T09:49:07.415Z,997.9
2018-04-18T09:50:08.873Z,997.6
2018-04-18T09:51:10.360Z,997.8
2018-04-18T09:52:11.769Z,997.9
2018-04-18T09:53:13.254Z,997.8
2018-04-18T09:54:14.644Z,997.8
2018-04-18T09:55:16.052Z,997.8
2018-04-18T09:56:17.464Z,997.8
2018-04-18T09:57:18.820Z,997.9
2018-04-18T09:58:20.237Z,997.9
2018-04-18T09:59:23.606Z,997.9
2018-04-18T10:00:25.020Z,997.8
2018-04-18T10:01:32.304Z,997.8
2018-04-18T10:02:33.707Z,997.8
2018-04-18T10:03:35.074Z,997.9
2018-04-18T10:04:36.430Z,997.9
2018-04-18T10:05:37.921Z,997.8
2018-04-18T10:06:39.643Z,997.8
2018-04-18T10:07:41.205Z,997.6
2018-04-18T10:08:42.783Z,997.7
2018-04-18T10:09:44.226Z,997.7
2018-04-18T10:10:45.626Z,997.7
2018-04-18T10:11:48.186Z,997.7
2018-04-18T10:12:49.889Z,997.6
2018-04-18T10:13:51.680Z,997.7
2018-04-18T10:15:06.587Z,997.5
2018-04-18T10:16:11.915Z,997.6
2018-04-18T10:17:15.645Z,997.6
2018-04-18T10:18:29.147Z,997.4
2018-04-18T10:19:39.592Z,997.6
2018-04-18T10:20:41.834Z,997.6
2018-04-18T10:21:43.615Z,997.6
2018-04-18T10:22:45.993Z,997.5
2018-04-18T10:23:47.370Z,997.6
2018-04-18T10:24:48.804Z,997.7
2018-04-18T10:25:50.573Z,997.6
2018-04-18T10:26:52.317Z,997.6
2018-04-18T10:27:53.807Z,997.4
2018-04-18T10:28:55.263Z,997.6
2018-04-18T10:29:56.731Z,997.6
2018-04-18T10:30:58.699Z,997.5
2018-04-18T10:32:00.182Z,997.6
2018-04-18T10:33:01.908Z,997.5
2018-04-18T10:34:03.411Z,997.6
2018-04-18T10:35:06.977Z,997.6
2018-04-18T10:36:08.461Z,997.6
2018-04-18T10:37:09.928Z,997.7
2018-04-18T10:38:11.696Z,997.6
2018-04-18T10:39:13.091Z,997.7
2018-04-18T10:40:14.547Z,997.6
2018-04-18T10:41:16.068Z,997.5
2018-04-18T10:42:17.513Z,997.6
2018-04-18T10:43:19.036Z,997.5
2018-04-18T10:44:20.878Z,997.6
2018-04-18T10:45:26.079Z,997.5
2018-04-18T10:46:27.542Z,997.5
2018-04-18T10:47:29.034Z,997.1
2018-04-18T10:48:30.663Z,997.4
2018-04-18T10:49:32.136Z,997.4
2018-04-18T10:50:33.656Z,997.4
2018-04-18T10:51:35.052Z,997.4
2018-04-18T10:52:37.672Z,997.4
2018-04-18T10:53:39.196Z,997.4
2018-04-18T10:54:40.623Z,997.5
2018-04-18T10:55:42.110Z,997.5
2018-04-18T10:56:46.710Z,997.3
2018-04-18T10:57:48.208Z,997.4
2018-04-18T10:58:49.633Z,997.5
2018-04-18T10:59:51.041Z,997.4
2018-04-18T11:00:52.566Z,997.3
2018-04-18T11:01:53.996Z,997.4
2018-04-18T11:02:55.797Z,997.1
2018-04-18T11:03:57.299Z,997.3
2018-04-18T11:04:59.053Z,997.2
2018-04-18T11:06:00.714Z,997.1
2018-04-18T11:07:08.607Z,997.1
2018-04-18T11:08:19.424Z,997.1
2018-04-18T11:09:20.952Z,997.2
2018-04-18T11:10:23.116Z,997.2
2018-04-18T11:11:24.701Z,997.3
2018-04-18T11:12:26.350Z,997.2
2018-04-18T11:13:28.753Z,997.3
2018-04-18T11:14:32.699Z,997.1
2018-04-18T11:15:48.332Z,997.3
2018-04-18T11:16:52.128Z,997.3
2018-04-18T11:17:53.878Z,997.2
2018-04-18T11:18:55.531Z,997.2
2018-04-18T11:20:08.298Z,997.1
2018-04-18T11:22:31.071Z,997.1
2018-04-18T11:23:32.846Z,997.1
2018-04-18T11:24:37.374Z,997.1
2018-04-18T11:26:00.608Z,997.2
2018-04-18T11:27:02.791Z,997.1
2018-04-18T11:28:05.198Z,997.2
2018-04-18T11:29:07.934Z,997.1
2018-04-18T11:30:09.448Z,996.9
2018-04-18T11:31:13.808Z,997.1
2018-04-18T11:32:15.344Z,997
2018-04-18T11:33:25.026Z,997
2018-04-18T11:34:26.539Z,997
2018-04-18T11:35:28.852Z,996.9
2018-04-18T11:36:30.369Z,996.9
2018-04-18T11:37:35.082Z,996.9
2018-04-18T11:38:36.770Z,996.9
2018-04-18T11:39:39.220Z,996.9
2018-04-18T11:40:40.795Z,996.9
2018-04-18T11:41:47.004Z,996.9
2018-04-18T11:42:48.522Z,996.7
2018-04-18T11:43:50.854Z,996.9
2018-04-18T11:44:52.515Z,996.8
2018-04-18T11:45:58.833Z,996.7
2018-04-18T11:47:06.301Z,996.8
2018-04-18T11:48:07.825Z,996.8
2018-04-18T11:49:09.434Z,996.8
2018-04-18T11:50:11.140Z,996.8
2018-04-18T11:51:12.776Z,996.8
2018-04-18T11:52:14.569Z,996.8
2018-04-18T11:53:16.101Z,996.7
2018-04-18T11:54:17.578Z,996.7
2018-04-18T11:55:19.200Z,996.6
2018-04-18T11:56:20.937Z,996.5
2018-04-18T11:57:22.614Z,996.6
2018-04-18T11:58:26.862Z,996.6
2018-04-18T11:59:28.410Z,996.7
2018-04-18T12:00:32.298Z,996.7
2018-04-18T12:01:36.715Z,996.7
2018-04-18T12:02:38.249Z,996.7
2018-04-18T12:03:39.719Z,996.7
2018-04-18T12:04:41.214Z,996.6
2018-04-18T12:05:42.789Z,996.6
2018-04-18T12:06:46.437Z,996.7
2018-04-18T12:07:48.489Z,996.7
2018-04-18T12:08:51.563Z,996.6
2018-04-18T12:09:52.997Z,996.7
2018-04-18T12:10:56.830Z,996.8
2018-04-18T12:11:59.618Z,996.7
2018-04-18T12:13:02.005Z,996.6
2018-04-18T12:14:03.574Z,996.6
2018-04-18T12:15:05.868Z,996.7
2018-04-18T12:16:07.541Z,996.6
2018-04-18T12:17:11.192Z,996.6
2018-04-18T12:18:12.956Z,996.5
2018-04-18T12:19:17.786Z,996.5
2018-04-18T12:20:19.475Z,996.4
2018-04-18T12:21:29.992Z,996.4
2018-04-18T12:22:31.611Z,996.5
2018-04-18T12:23:33.545Z,996.6
2018-04-18T12:24:35.143Z,996.5
2018-04-18T12:25:36.989Z,996.4
2018-04-18T12:26:38.540Z,996.5
2018-04-18T12:27:40.045Z,996.5
2018-04-18T12:28:41.573Z,996.4
2018-04-18T12:29:46.114Z,996.5
2018-04-18T12:30:47.668Z,996.4
2018-04-18T12:31:49.615Z,996.4
2018-04-18T12:32:51.230Z,996.5
2018-04-18T12:33:52.657Z,996.5
2018-04-18T12:34:54.304Z,996.4
2018-04-18T12:35:55.848Z,996.4
2018-04-18T12:36:57.284Z,996.5
2018-04-18T12:37:59.246Z,996.4
2018-04-18T12:39:00.829Z,996.5
2018-04-18T12:40:07.612Z,996.5
2018-04-18T12:41:09.149Z,996.5
2018-04-18T12:42:10.591Z,996.3
2018-04-18T12:43:12.055Z,996.4
2018-04-18T12:44:15.877Z,996.2
2018-04-18T12:45:17.283Z,996.4
2018-04-18T12:46:19.000Z,996.4
2018-04-18T12:47:20.367Z,996.3
2018-04-18T12:48:22.171Z,996.3
2018-04-18T12:49:23.698Z,996.3
2018-04-18T12:50:31.806Z,996.3
2018-04-18T12:51:33.223Z,996.3
2018-04-18T12:52:34.867Z,996.3
2018-04-18T12:53:36.252Z,996.2
2018-04-18T12:54:38.901Z,996.2
2018-04-18T12:55:40.391Z,996.2
2018-04-18T12:56:47.011Z,996
2018-04-18T12:57:48.414Z,996.2
2018-04-18T12:58:50.056Z,996.1
2018-04-18T12:59:52.765Z,996.1
2018-04-18T13:00:54.600Z,996.1
2018-04-18T13:01:56.013Z,996
2018-04-18T13:02:58.321Z,996.1
2018-04-18T13:03:59.783Z,996.1
2018-04-18T13:05:06.316Z,995.9
2018-04-18T13:06:07.802Z,996.1
2018-04-18T13:07:09.306Z,996
2018-04-18T13:08:10.719Z,995.8
2018-04-18T13:09:15.951Z,995.9
2018-04-18T13:10:17.367Z,995.9
2018-04-18T13:11:19.142Z,995.9
2018-04-18T13:12:20.632Z,996
2018-04-18T13:13:22.758Z,995.8
2018-04-18T13:14:24.125Z,995.9
2018-04-18T13:15:31.380Z,995.9
2018-04-18T13:16:32.783Z,995.9
2018-04-18T13:17:35.031Z,995.9
2018-04-18T13:18:36.436Z,995.9
2018-04-18T13:19:40.336Z,995.9
2018-04-18T13:20:41.879Z,995.8
2018-04-18T13:21:45.973Z,995.7
2018-04-18T13:22:47.527Z,995.7
2018-04-18T13:23:49.077Z,995.8
2018-04-18T13:24:51.082Z,995.8
2018-04-18T13:25:57.289Z,995.8
2018-04-18T13:26:58.662Z,995.7
2018-04-18T13:28:00.294Z,995.7